• Join FlightAware (Why Join?)
  • Login
  • US Flag 
07:23AM EST


 

Airport Tracker/Info


-or-


 

Live Flight TrackerFlight Track Log ✈ AAL1459 ✈ 07-Jul-2013 ✈ KORD - KRNO

Flight Track Log - Related Links

Times and Time Zones

All times are in EDT time to prevent confusion due to time zone crossing. See the AAL1459 flight status page for this flight to view local times or setup timezone preferences in your user account.

Time Position Orientation Groundspeed Altitude Reporting Facility
EDT Latitude Longitude Course Direction KTS MPH feet Rate Location/Type
07:26PM 41.9500 -87.9333 261° West 190 219 2,100  Level Chicago TRACON
07:28PM 41.9383 -88.1192 265° West 251 289 7,000 2,280 Climbing Chicago Center
07:29PM 41.9747 -88.2031 300° West 279 321 9,500 2,160 Climbing Chicago Center
07:30PM 41.8950 -88.6515 261° West  Level FlightAware Approximate
07:30PM 41.9800 -88.3122 274° West 303 349 11,500  Level Chicago Center
07:31PM 41.8773 -88.8027 261° West  Level FlightAware Approximate
07:31PM 41.9703 -88.4369 264° West 335 386 13,300  Level Chicago Center
07:32PM 41.9586 -88.5747 264° West 366 421 15,300 2,460 Climbing Chicago Center
07:33PM 41.9458 -88.7475 264° West 390 449 18,400 2,220 Climbing Chicago Center
07:34PM 41.9353 -88.8897 264° West 389 448 20,000 1,500 Climbing Chicago Center
07:35PM 41.9264 -89.0425 266° West 408 470 21,600 1,440 Climbing Chicago Center
07:36PM 41.9178 -89.2006 266° West 424 488 23,000 1,440 Climbing Chicago Center
07:37PM 41.9044 -89.3975 265° West 443 510 24,700 1,440 Climbing Chicago Center
07:38PM 41.8936 -89.5639 265° West 450 518 26,000 1,320 Climbing Chicago Center
07:40PM 41.8811 -89.7311 264° West 455 524 27,500 1,560 Climbing Chicago Center
07:41PM 41.8681 -89.9147 265° West 456 525 29,300 1,440 Climbing Chicago Center
07:42PM 41.8575 -90.0806 265° West 453 521 30,500 1,140 Climbing Chicago Center
07:43PM 41.8453 -90.2472 264° West 454 522 31,700 1,200 Climbing Chicago Center
07:44PM 41.8336 -90.4133 265° West 452 520 33,100 1,200 Climbing Chicago Center
07:45PM 41.8414 -90.5758 274° West 443 510 34,300 1,320 Climbing Chicago Center
07:46PM 41.8519 -90.7725 274° West 444 511 35,900 780 Climbing Chicago Center
07:47PM 41.8617 -90.9272 275° West 424 488 36,000  Climbing Chicago Center
07:48PM 41.8711 -91.0850 275° West 426 490 36,000  Level Chicago Center
07:49PM 41.8800 -91.2428 274° West 426 490 36,000  Level Chicago Center
07:50PM 41.8881 -91.4011 274° West 427 491 36,000  Level Chicago Center
07:51PM 41.8983 -91.5881 274° West 423 487 36,000  Level Chicago Center
07:53PM 41.9114 -91.8422 274° West 420 483 36,000  Level Minneapolis Center
07:54PM 41.9194 -92.0003 274° West 425 489 36,000  Level Minneapolis Center
07:55PM 41.9269 -92.1589 274° West 427 491 36,000  Level Minneapolis Center
07:56PM 41.9350 -92.3161 274° West 425 489 36,000  Level Minneapolis Center
07:57PM 41.9431 -92.4722 274° West 424 488 36,000  Level Minneapolis Center
07:58PM 41.9522 -92.6936 273° West 427 491 36,000  Level Minneapolis Center
07:59PM 41.9581 -92.8514 273° West 426 490 36,000  Level Minneapolis Center
08:00PM 41.9644 -93.0094 273° West 428 493 36,000  Level Minneapolis Center
08:01PM 41.9717 -93.1692 274° West 430 495 36,000  Level Minneapolis Center
08:02PM 41.9775 -93.3278 273° West 433 498 36,000  Level Minneapolis Center
08:03PM 41.9831 -93.4889 273° West 438 504 36,000  Level Minneapolis Center
08:04PM 41.9908 -93.6781 273° West 430 495 36,000  Level Minneapolis Center
08:05PM 41.9961 -93.8336 273° West 422 486 36,000  Level Minneapolis Center
08:06PM 42.0022 -94.0017 273° West 422 486 36,000  Level Minneapolis Center
08:07PM 42.0061 -94.1597 272° West 425 489 36,000  Level Minneapolis Center
08:08PM 42.0119 -94.3178 273° West 424 488 36,000  Level Minneapolis Center
08:09PM 42.0169 -94.4769 272° West 426 490 36,000  Level Minneapolis Center
08:10PM 42.0214 -94.6350 272° West 425 489 36,000  Level Minneapolis Center
08:11PM 42.0250 -94.7931 272° West 425 489 36,000  Level Minneapolis Center
08:12PM 42.0289 -94.9806 272° West 420 483 36,000  Level Minneapolis Center
08:14PM 42.0322 -95.1353 272° West 416 479 36,000  Level Minneapolis Center
08:15PM 42.0361 -95.3219 272° West 417 480 36,000  Level Minneapolis Center
08:16PM 42.0392 -95.4747 272° West 413 475 36,000  Level Minneapolis Center
08:17PM 42.0422 -95.6275 272° West 411 473 36,000  Level Minneapolis Center
08:18PM 42.0442 -95.7758 271° West 401 461 36,000  Level Minneapolis Center
08:19PM 42.0467 -95.9600 271° West 410 472 36,000  Level Minneapolis Center
08:20PM 42.0492 -96.1122 271° West 409 471 36,000  Level Minneapolis Center
08:21PM 42.0514 -96.2656 271° West 412 474 36,000  Level Minneapolis Center
08:22PM 42.0536 -96.4206 271° West 416 479 36,000  Level Minneapolis Center
08:23PM 42.0553 -96.5750 271° West 416 479 36,000  Level Minneapolis Center
08:24PM 42.0561 -96.7606 270° West 417 480 36,000  Level Minneapolis Center
08:25PM 42.0578 -96.9153 271° West 416 479 36,000  Level Minneapolis Center
08:26PM 42.0583 -97.0731 270° West 420 483 36,000  Level Minneapolis Center
08:27PM 42.0600 -97.2286 271° West 419 482 36,000  Level Minneapolis Center
08:28PM 42.0597 -97.3867 270° West 422 486 36,000  Level Minneapolis Center
08:29PM 42.0600 -97.5439 270° West 422 486 36,000  Level Minneapolis Center
08:30PM 42.0603 -97.7325 270° West 421 484 36,000  Level Minneapolis Center
08:31PM 42.0608 -97.8900 270° West 422 486 36,000  Level Minneapolis Center
08:32PM 42.0597 -98.0497 270° West 426 490 36,000  Level Minneapolis Center
08:33PM 42.0778 -98.2183 278° West 425 489 36,000  Level Minneapolis Center
08:34PM 42.1122 -98.3725 287° West 430 495 36,000  Level Minneapolis Center
08:35PM 42.1517 -98.5250 289° West 433 498 36,000  Level Minneapolis Center
08:36PM 42.2111 -98.6647 300° West 434 499 36,000  Level Minneapolis Center
08:37PM 42.2706 -98.8056 300° West 433 498 36,000  Level Minneapolis Center
08:38PM 42.3308 -98.9431 301° West 430 495 36,000  Level Minneapolis Center
08:39PM 42.4025 -99.1117 300° West 431 496 36,000  Level Minneapolis Center
08:40PM 42.4625 -99.2500 300° West 428 493 36,000  Level Minneapolis Center
08:41PM 42.5267 -99.3858 303° West 429 494 36,000  Level Minneapolis Center
08:42PM 42.5889 -99.5233 302° West 429 494 36,000  Level Minneapolis Center
08:43PM 42.6450 -99.6664 298° West 427 491 36,000  Level Minneapolis Center
08:45PM 42.6814 -99.8164 288° West 424 488 36,000  Level Minneapolis Center
08:46PM 42.6733 -100.0058 267° West 420 483 36,000  Level Minneapolis Center
08:47PM 42.6650 -100.1614 266° West 414 476 36,000  Level Minneapolis Center
08:48PM 42.6542 -100.3664 266° West 411 473 36,000  Level Denver Center
08:49PM 42.6456 -100.5108 265° West 405 466 36,000  Level Denver Center
08:50PM 42.6383 -100.6544 266° West 400 460 36,000  Level Denver Center
08:51PM 42.6278 -100.8222 265° West 400 460 36,000  Level Denver Center
08:52PM 42.6194 -100.9636 265° West 396 456 36,000  Level Denver Center
08:53PM 42.6089 -101.1283 265° West 393 452 36,000  Level Denver Center
08:54PM 42.5989 -101.2711 265° West 395 455 36,000  Level Denver Center
08:55PM 42.5881 -101.4378 265° West 399 459 36,000  Level Denver Center
08:56PM 42.5800 -101.5794 266° West 397 457 36,000  Level Denver Center
08:57PM 42.5697 -101.7239 265° West 401 461 36,000  Level Denver Center
08:58PM 42.5578 -101.8981 265° West 404 465 36,000  Level Denver Center
08:59PM 42.5472 -102.0406 264° West 397 457 36,000  Level Denver Center
09:00PM 42.5375 -102.2072 266° West 397 457 36,000  Level Denver Center
09:01PM 42.5264 -102.3503 264° West 400 460 36,000  Level Denver Center
09:02PM 42.5164 -102.4928 265° West 399 459 36,000  Level Denver Center
09:03PM 42.5036 -102.6603 264° West 400 460 36,000  Level Denver Center
09:04PM 42.4914 -102.8047 264° West 402 463 36,000  Level Denver Center
09:05PM 42.4781 -102.9739 264° West 406 467 36,000  Level Denver Center
09:06PM 42.4667 -103.1183 264° West 404 465 36,000  Level Denver Center
09:07PM 42.4556 -103.2650 264° West 408 470 36,000  Level Denver Center
09:08PM 42.4406 -103.4361 263° West 412 474 36,000  Level Denver Center
09:09PM 42.4281 -103.5833 263° West 412 474 36,000  Level Denver Center
09:10PM 42.4133 -103.7569 264° West 414 476 36,000  Level Denver Center
09:11PM 42.4000 -103.9067 263° West 418 481 36,000  Level Denver Center
09:12PM 42.3850 -104.0822 263° West 421 484 36,000  Level Denver Center
09:14PM 42.3708 -104.2308 263° West 416 479 36,000  Level Denver Center
09:15PM 42.3569 -104.3808 263° West 416 479 36,000  Level Denver Center
09:16PM 42.3408 -104.5569 263° West 418 481 36,000  Level Denver Center
09:17PM 42.3261 -104.7075 263° West 418 481 36,000  Level Denver Center
09:18PM 42.3117 -104.8572 263° West 417 480 36,000  Level Denver Center
09:19PM 42.2961 -105.0319 263° West 418 481 36,000  Level Denver Center
09:20PM 42.2814 -105.1789 262° West 413 475 36,000  Level Denver Center
09:21PM 42.2647 -105.3536 263° West 418 481 36,000  Level Denver Center
09:22PM 42.2497 -105.5017 262° West 415 478 36,000  Level Denver Center
09:23PM 42.2347 -105.6486 262° West 414 476 36,000  Level Denver Center
09:24PM 42.2169 -105.8194 262° West 412 474 36,000  Level Denver Center
09:25PM 42.2006 -105.9658 261° West 412 474 36,000  Level Denver Center
09:26PM 42.1831 -106.1358 262° West 410 472 36,000  Level Denver Center
09:27PM 42.1664 -106.2808 261° West 409 471 36,000  Level Denver Center
09:28PM 42.1483 -106.4503 262° West 408 470 36,000  Level Denver Center
09:29PM 42.1344 -106.5894 262° West 411 473 36,000  Level Denver Center
09:30PM 42.1147 -106.7600 261° West 413 475 36,000  Level Denver Center
09:31PM 42.0983 -106.9081 262° West 416 479 36,000  Level Denver Center
09:32PM 42.0781 -107.0811 261° West 419 482 36,000  Level Denver Center
09:33PM 42.0628 -107.2264 262° West 412 474 36,000  Level Denver Center
09:34PM 42.0447 -107.3700 260° West 408 470 36,000  Level Denver Center
09:35PM 42.0250 -107.5356 261° West 403 464 36,000  Level Denver Center
09:36PM 42.0086 -107.6767 261° West 399 459 36,000  Level Denver Center
09:37PM 41.9881 -107.8408 260° West 400 460 36,000  Level Denver Center
09:38PM 41.9700 -107.9822 260° West 401 461 36,000  Level Denver Center
09:39PM 41.9508 -108.1458 261° West 399 459 36,000  Level Denver Center
09:40PM 41.9322 -108.2842 260° West 396 456 36,000  Level Denver Center
09:41PM 41.9114 -108.4492 260° West 401 461 36,000  Level Denver Center
09:43PM 41.8864 -108.6397 260° West 403 464 36,000  Level Salt Lake Center
09:44PM 41.8647 -108.8053 260° West 405 466 36,000  Level Salt Lake Center
09:45PM 41.8469 -108.9483 261° West 408 470 36,000  Level Salt Lake Center
09:46PM 41.8275 -109.0914 260° West 410 472 36,000  Level Salt Lake Center
09:47PM 41.8061 -109.2589 260° West 411 473 36,000  Level Salt Lake Center
09:48PM 41.7858 -109.4031 259° West 414 476 36,000  Level Salt Lake Center
09:49PM 41.7617 -109.5711 259° West 414 476 36,000  Level Salt Lake Center
09:50PM 41.7419 -109.7156 260° West 415 478 36,000  Level Salt Lake Center
09:51PM 41.7175 -109.8836 259° West 414 476 36,000  Level Salt Lake Center
09:52PM 41.6967 -110.0286 259° West 416 479 36,000  Level Salt Lake Center
09:53PM 41.6728 -110.1981 259° West 417 480 36,000  Level Salt Lake Center
09:54PM 41.6508 -110.3444 259° West 419 482 36,000  Level Salt Lake Center
09:55PM 41.6264 -110.5125 259° West 415 478 36,000  Level Salt Lake Center
09:56PM 41.6050 -110.6569 259° West 415 478 36,000  Level Salt Lake Center
09:57PM 41.5842 -110.8006 259° West 412 474 36,000  Level Salt Lake Center
09:58PM 41.5586 -110.9658 258° West 413 475 36,000  Level Salt Lake Center
09:59PM 41.5353 -111.1147 258° West 411 473 36,000  Level Salt Lake Center
10:00PM 41.5131 -111.2625 259° West 409 471 36,000  Level Salt Lake Center
10:01PM 41.4906 -111.4111 259° West 411 473 36,000  Level Salt Lake Center
10:02PM 41.4667 -111.5628 258° West 421 484 36,000  Level Salt Lake Center
10:03PM 41.4378 -111.7417 258° West 417 480 36,000  Level Salt Lake Center
10:04PM 41.4139 -111.8919 258° West 419 482 36,000  Level Salt Lake Center
10:05PM 41.3897 -112.0408 258° West 417 480 36,000  Level Salt Lake Center
10:06PM 41.3658 -112.1894 258° West 416 479 36,000  Level Salt Lake Center
10:07PM 41.3417 -112.3392 258° West 418 481 36,000  Level Salt Lake Center
10:08PM 41.3161 -112.4897 257° West 420 483 36,000  Level Salt Lake Center
10:09PM 41.2853 -112.6725 257° West 425 489 36,000  Level Salt Lake Center
10:10PM 41.2603 -112.8236 258° West 421 484 36,000  Level Salt Lake Center
10:11PM 41.2342 -112.9767 257° West 426 490 36,000  Level Salt Lake Center
10:12PM 41.2083 -113.1261 257° West 418 481 36,000  Level Salt Lake Center
10:13PM 41.1825 -113.2744 257° West 415 478 36,000  Level Salt Lake Center
10:14PM 41.1556 -113.4242 257° West 416 479 36,000  Level Salt Lake Center
10:15PM 41.1306 -113.5711 257° West 412 474 36,000  Level Salt Lake Center
10:16PM 41.0989 -113.7492 257° West 414 476 36,000  Level Salt Lake Center
10:18PM 41.0725 -113.8994 257° West 418 481 36,000  Level Salt Lake Center
10:19PM 41.0478 -114.0506 258° West 420 483 36,000  Level Salt Lake Center
10:20PM 41.0175 -114.1992 255° West 420 483 36,000  Level Salt Lake Center
10:21PM 40.9900 -114.3497 256° West 422 486 36,000  Level Salt Lake Center
10:22PM 40.9608 -114.5167 257° West 419 482 36,000  Level Salt Lake Center
10:23PM 40.9347 -114.6606 257° West 419 482 36,000  Level Salt Lake Center
10:24PM 40.9017 -114.8281 255° West 421 484 36,000  Level Salt Lake Center
10:25PM 40.8725 -114.9725 255° West 424 488 36,000  Level Salt Lake Center
10:26PM 40.8456 -115.1144 256° West 419 482 36,000  Level Salt Lake Center
10:27PM 40.8128 -115.2819 256° West 422 486 36,000  Level Salt Lake Center
10:28PM 40.7850 -115.4256 256° West 422 486 36,000  Level Salt Lake Center
10:29PM 40.7553 -115.5917 257° West 418 481 36,000  Level Salt Lake Center
10:30PM 40.7258 -115.7325 255° West 416 479 36,000  Level Salt Lake Center
10:31PM 40.6981 -115.8736 255° West 415 478 36,000  Level Salt Lake Center
10:32PM 40.6675 -116.0381 256° West 415 478 36,000  Level Salt Lake Center
10:33PM 40.6386 -116.1786 255° West 415 478 36,000  Level Salt Lake Center
10:34PM 40.6042 -116.3444 255° West 420 483 36,000  Level Salt Lake Center
10:35PM 40.5761 -116.4853 255° West 417 480 36,000  Level Salt Lake Center
10:36PM 40.5475 -116.6247 255° West 415 478 36,000  Level Salt Lake Center
10:37PM 40.5139 -116.7881 255° West 417 480 36,000  Level Salt Lake Center
10:38PM 40.4803 -116.9517 255° West 426 490 36,000  Level Salt Lake Center
10:39PM 40.4506 -117.0931 255° West 427 491 36,000  Level Salt Lake Center
10:40PM 40.4206 -117.2333 254° West 422 486 36,000  Level Salt Lake Center
10:41PM 40.3850 -117.3953 254° West 417 480 36,000  Level Salt Lake Center
10:42PM 40.3558 -117.5333 255° West 413 475 36,000  Level Salt Lake Center
10:43PM 40.3200 -117.6931 254° West 409 471 36,000  Level Salt Lake Center
10:44PM 40.2903 -117.8319 254° West 412 474 36,000  Level Salt Lake Center
10:45PM 40.2544 -117.9931 254° West 414 476 36,000 -240 Level Salt Lake Center
10:46PM 40.2250 -118.1325 255° West 414 476 35,600 -1,080 Descending Salt Lake Center
10:47PM 40.1925 -118.2719 253° West 418 481 33,800 -2,220 Descending Salt Lake Center
10:48PM 40.1542 -118.4497 254° West 425 489 31,000 -2,460 Descending Oakland Center
10:49PM 40.1208 -118.6036 254° West 439 505 28,600 -2,460 Descending Oakland Center
10:50PM 40.0911 -118.7625 256° West 450 518 26,100 -2,580 Descending Oakland Center
10:51PM 40.0592 -118.9200 255° West 451 519 23,400 -2,760 Descending Oakland Center
10:52PM 40.0303 -119.0681 256° West 428 493 20,500 -2,520 Descending Oakland Center
10:53PM 39.9964 -119.2067 252° West 406 467 18,300 -2,100 Descending Oakland Center
10:54PM 39.9450 -119.3158 238° Southwest 358 412 16,300 -1,380 Descending Oakland Center
10:55PM 39.8972 -119.4150 238° Southwest 332 382 15,500 -1,380 Descending Oakland Center
10:56PM 39.8469 -119.5233 239° Southwest 302 348 13,600 -1,260 Descending Oakland Center
10:57PM 39.8050 -119.6106 238° Southwest 291 335 13,000 -1,140 Descending Oakland Center
10:59PM 39.7694 -119.6883 239° Southwest 261 300 11,300 -1,680 Descending Oakland Center
11:00PM 39.7228 -119.7503 226° Southwest 248 285 9,600 -1,680 Descending Oakland Center